createdAt,value
2023-03-26T00:01:39.618Z,97107.09
2023-03-26T00:04:07.877Z,97115.56
2023-03-26T00:06:39.976Z,97112.06
2023-03-26T00:09:13.242Z,97117.56
2023-03-26T00:11:42.436Z,97123.63
2023-03-26T00:14:13.845Z,97112.31
2023-03-26T00:16:42.660Z,97117.72
2023-03-26T00:19:11.604Z,97118.28
2023-03-26T00:21:39.114Z,97115.47
2023-03-26T00:24:14.896Z,97115.28
2023-03-26T00:26:43.358Z,97123.16
2023-03-26T00:29:13.556Z,97114.97
2023-03-26T00:31:41.248Z,97127.75
2023-03-26T00:34:10.395Z,97117.75
2023-03-26T00:36:37.989Z,97118.78
2023-03-26T00:39:05.679Z,97105.44
2023-03-26T00:41:36.816Z,97114.44
2023-03-26T00:44:04.974Z,97103.59
2023-03-26T00:46:32.683Z,97098.66
2023-03-26T00:49:01.664Z,97092.13
2023-03-26T00:51:29.730Z,97087.63
2023-03-26T00:53:58.269Z,97087.44
2023-03-26T00:56:26.201Z,97088.91
2023-03-26T00:58:53.791Z,97078.09
2023-03-26T01:01:28.512Z,97072.94
2023-03-26T01:04:08.082Z,97070.28
2023-03-26T01:06:41.866Z,97062.09
2023-03-26T01:09:18.649Z,97058.97
2023-03-26T01:11:49.668Z,97062.44
2023-03-26T01:14:26.838Z,97053.81
2023-03-26T01:17:01.565Z,97057.50
2023-03-26T01:19:39.544Z,97047.84
2023-03-26T01:22:11.908Z,97032.50
2023-03-26T01:24:40.607Z,97040.97
2023-03-26T01:27:28.183Z,97034.00
2023-03-26T01:30:41.551Z,97035.81
2023-03-26T01:33:20.993Z,97029.78
2023-03-26T01:35:58.160Z,97029.78
2023-03-26T01:39:02.625Z,97027.94
2023-03-26T01:41:58.057Z,97023.59
2023-03-26T01:44:57.131Z,97021.78
2023-03-26T01:47:25.879Z,97015.44
2023-03-26T01:49:53.447Z,97005.78
2023-03-26T01:52:26.065Z,97003.94
2023-03-26T01:54:57.544Z,96995.78
2023-03-26T01:57:53.632Z,96991.44
2023-03-26T02:00:35.785Z,96994.13
2023-03-26T02:03:26.453Z,96980.63
2023-03-26T02:06:18.580Z,96970.59
2023-03-26T02:09:08.408Z,96968.75
2023-03-26T02:11:39.698Z,96953.78
2023-03-26T02:14:09.576Z,96948.94
2023-03-26T02:16:37.118Z,96939.44
2023-03-26T02:19:05.096Z,96944.41
2023-03-26T02:21:33.949Z,96941.94
2023-03-26T02:24:04.458Z,96929.06
2023-03-26T02:26:37.741Z,96923.56
2023-03-26T02:29:13.912Z,96925.38
2023-03-26T02:31:44.055Z,96923.56
2023-03-26T02:34:11.629Z,96927.41
2023-03-26T02:36:46.831Z,96923.91
2023-03-26T02:39:14.560Z,96928.25
2023-03-26T02:41:46.326Z,96927.22
2023-03-26T02:44:13.860Z,96921.06
2023-03-26T02:46:59.652Z,96914.06
2023-03-26T02:49:46.027Z,96917.94
2023-03-26T02:52:20.650Z,96914.06
2023-03-26T02:54:50.208Z,96919.63
2023-03-26T02:57:20.738Z,96916.94
2023-03-26T02:59:52.705Z,96906.47
2023-03-26T03:02:57.894Z,96902.59
2023-03-26T03:05:33.011Z,96896.63
2023-03-26T03:08:18.248Z,96892.59
2023-03-26T03:11:10.302Z,96884.75
2023-03-26T03:13:46.397Z,96883.75
2023-03-26T03:16:18.079Z,96881.75
2023-03-26T03:18:47.444Z,96877.25
2023-03-26T03:21:15.221Z,96868.25
2023-03-26T03:23:42.754Z,96864.19
2023-03-26T03:26:18.005Z,96864.47
2023-03-26T03:28:51.961Z,96863.25
2023-03-26T03:31:19.623Z,96855.56
2023-03-26T03:33:47.440Z,96851.88
2023-03-26T03:36:19.785Z,96848.03
2023-03-26T03:38:51.198Z,96836.31
2023-03-26T03:41:21.589Z,96826.31
2023-03-26T03:43:50.007Z,96829.19
2023-03-26T03:46:23.900Z,96817.50
2023-03-26T03:48:51.450Z,96819.53
2023-03-26T03:51:27.127Z,96821.81
2023-03-26T03:53:59.387Z,96816.28
2023-03-26T03:56:39.504Z,96824.66
2023-03-26T03:59:29.841Z,96817.31
2023-03-26T04:01:57.818Z,96825.66
2023-03-26T04:04:32.956Z,96823.63
2023-03-26T04:07:04.167Z,96820.34
2023-03-26T04:09:38.664Z,96821.19
2023-03-26T04:12:13.925Z,96800.69
2023-03-26T04:14:46.552Z,96791.47
2023-03-26T04:17:16.371Z,96794.13
2023-03-26T04:19:45.787Z,96789.44
2023-03-26T04:22:18.148Z,96779.22
2023-03-26T04:24:54.405Z,96780.91
2023-03-26T04:27:35.327Z,96773.31
2023-03-26T04:30:20.612Z,96774.19
2023-03-26T04:32:58.346Z,96766.81
2023-03-26T04:35:30.251Z,96763.75
2023-03-26T04:37:58.206Z,96756.78
2023-03-26T04:40:34.995Z,96735.06
2023-03-26T04:43:18.680Z,96724.84
2023-03-26T04:46:03.319Z,96715.66
2023-03-26T04:48:34.266Z,96724.28
2023-03-26T04:51:02.085Z,96717.09
2023-03-26T04:53:29.829Z,96722.63
2023-03-26T04:56:30.733Z,96717.28
2023-03-26T04:59:34.848Z,96720.78
2023-03-26T05:02:07.908Z,96738.44
2023-03-26T05:04:46.275Z,96733.47
2023-03-26T05:07:25.046Z,96728.53
2023-03-26T05:09:57.306Z,96734.50
2023-03-26T05:12:54.349Z,96721.16
2023-03-26T05:15:26.233Z,96722.00
2023-03-26T05:17:55.463Z,96705.00
2023-03-26T05:20:30.195Z,96703.97
2023-03-26T05:22:58.178Z,96698.63
2023-03-26T05:25:31.509Z,96691.44
2023-03-26T05:28:02.219Z,96675.44
2023-03-26T05:30:40.298Z,96671.38
2023-03-26T05:33:07.988Z,96663.38
2023-03-26T05:36:13.113Z,96658.69
2023-03-26T05:38:49.297Z,96655.25
2023-03-26T05:41:36.768Z,96652.66
2023-03-26T05:44:04.694Z,96645.69
2023-03-26T05:46:32.373Z,96641.34
2023-03-26T05:49:00.834Z,96647.06
2023-03-26T05:51:32.252Z,96645.44
2023-03-26T05:54:20.447Z,96634.56
2023-03-26T05:57:06.390Z,96629.44
2023-03-26T05:59:52.773Z,96621.06
2023-03-26T06:02:20.265Z,96619.56
2023-03-26T06:05:07.734Z,96609.91
2023-03-26T06:07:47.002Z,96597.44
2023-03-26T06:10:18.358Z,96591.91
2023-03-26T06:12:47.129Z,96589.88
2023-03-26T06:15:15.490Z,96589.25
2023-03-26T06:17:59.773Z,96580.25
2023-03-26T06:20:45.315Z,96570.22
2023-03-26T06:23:27.332Z,96562.44
2023-03-26T06:26:13.166Z,96554.22
2023-03-26T06:28:50.635Z,96567.38
2023-03-26T06:31:47.605Z,96567.19
2023-03-26T06:34:21.591Z,96554.84
2023-03-26T06:36:52.488Z,96552.19
2023-03-26T06:39:21.168Z,96552.81
2023-03-26T06:41:58.696Z,96547.28
2023-03-26T06:44:44.857Z,96548.09
2023-03-26T06:47:31.061Z,96549.94
2023-03-26T06:50:16.935Z,96556.94
2023-03-26T06:52:56.858Z,96550.38
2023-03-26T06:55:54.510Z,96545.84
2023-03-26T06:58:33.117Z,96550.16
2023-03-26T07:01:19.505Z,96543.38
2023-03-26T07:04:05.463Z,96535.00
2023-03-26T07:06:51.683Z,96532.16
2023-03-26T07:09:48.521Z,96521.91
2023-03-26T07:12:39.183Z,96518.00
2023-03-26T07:15:25.123Z,96517.00
2023-03-26T07:18:17.414Z,96513.28
2023-03-26T07:20:46.405Z,96506.72
2023-03-26T07:23:19.974Z,96483.53
2023-03-26T07:25:58.247Z,96492.16
2023-03-26T07:29:04.738Z,96481.31
2023-03-26T07:32:05.727Z,96488.88
2023-03-26T07:35:16.322Z,96501.38
2023-03-26T07:38:33.072Z,96464.81
2023-03-26T07:41:50.020Z,96484.91
2023-03-26T07:45:13.067Z,96479.97
2023-03-26T07:47:49.495Z,96469.09
2023-03-26T07:50:46.034Z,96459.44
2023-03-26T07:53:33.258Z,96454.53
2023-03-26T07:56:40.632Z,96451.47
2023-03-26T07:59:57.463Z,96457.44
2023-03-26T08:03:30.173Z,96447.78
2023-03-26T08:06:44.386Z,96437.75
2023-03-26T08:09:41.155Z,96437.75
2023-03-26T08:13:10.759Z,96442.25
2023-03-26T08:16:19.386Z,96438.72
2023-03-26T08:19:07.857Z,96435.25
2023-03-26T08:21:53.480Z,96422.53
2023-03-26T08:24:36.539Z,96414.72
2023-03-26T08:27:50.287Z,96408.31
2023-03-26T08:30:22.305Z,96416.97
2023-03-26T08:32:56.564Z,96408.31
2023-03-26T08:35:26.133Z,96409.16
2023-03-26T08:37:54.185Z,96400.97
2023-03-26T08:40:50.209Z,96406.09
2023-03-26T08:43:58.593Z,96409.59
2023-03-26T08:47:07.975Z,96398.31
2023-03-26T08:50:03.810Z,96411.66
2023-03-26T08:52:52.484Z,96401.63
2023-03-26T08:55:43.684Z,96394.03
2023-03-26T08:58:42.026Z,96391.19
2023-03-26T09:01:21.771Z,96408.63
2023-03-26T09:03:58.630Z,96427.50
2023-03-26T09:06:56.692Z,96401.63
2023-03-26T09:10:24.854Z,96393.44
2023-03-26T09:13:30.401Z,96405.72
2023-03-26T09:16:14.070Z,96404.53
2023-03-26T09:18:46.157Z,96396.13
2023-03-26T09:22:04.442Z,96386.47
2023-03-26T09:24:57.101Z,96386.47
2023-03-26T09:27:50.227Z,96386.47
2023-03-26T09:31:02.404Z,96388.31
2023-03-26T09:33:48.746Z,96386.25
2023-03-26T09:36:52.176Z,96387.28
2023-03-26T09:39:43.563Z,96388.31
2023-03-26T09:42:43.124Z,96394.47
2023-03-26T09:45:57.752Z,96395.28
2023-03-26T09:49:01.761Z,96393.63
2023-03-26T09:51:54.495Z,96389.94
2023-03-26T09:55:22.594Z,96389.72
2023-03-26T09:58:27.415Z,96385.97
2023-03-26T10:01:40.928Z,96389.44
2023-03-26T10:04:53.933Z,96376.06
2023-03-26T10:08:07.824Z,96376.25
2023-03-26T10:11:16.635Z,96367.25
2023-03-26T10:14:25.994Z,96372.81
2023-03-26T10:17:41.178Z,96365.44
2023-03-26T10:20:33.810Z,96367.66
2023-03-26T10:23:31.558Z,96367.66
2023-03-26T10:26:17.301Z,96364.44
2023-03-26T10:29:17.304Z,96372.00
2023-03-26T10:32:28.960Z,96366.81
2023-03-26T10:35:37.202Z,96363.84
2023-03-26T10:38:24.017Z,96358.22
2023-03-26T10:41:23.239Z,96369.69
2023-03-26T10:44:27.807Z,96369.72
2023-03-26T10:47:25.433Z,96364.56
2023-03-26T10:50:49.426Z,96361.50
2023-03-26T10:53:50.278Z,96357.13
2023-03-26T10:56:44.150Z,96348.72
2023-03-26T10:59:17.287Z,96346.66
2023-03-26T11:02:29.260Z,96348.38
2023-03-26T11:05:39.934Z,96341.47
2023-03-26T11:08:35.536Z,96346.09
2023-03-26T11:11:24.026Z,96350.25
2023-03-26T11:14:34.178Z,96353.72
2023-03-26T11:17:39.391Z,96346.75
2023-03-26T11:20:32.518Z,96344.22
2023-03-26T11:23:36.694Z,96341.69
2023-03-26T11:26:26.071Z,96350.00
2023-03-26T11:29:32.456Z,96343.78
2023-03-26T11:32:26.058Z,96377.56
2023-03-26T11:35:05.699Z,96365.41
2023-03-26T11:37:46.416Z,96369.91
2023-03-26T11:40:25.338Z,96374.63
2023-03-26T11:43:02.478Z,96367.78
2023-03-26T11:45:37.998Z,96363.03
2023-03-26T11:48:10.888Z,96358.34
2023-03-26T11:50:53.311Z,96365.53
2023-03-26T11:53:24.583Z,96379.53
2023-03-26T11:56:08.108Z,96393.06
2023-03-26T11:58:52.017Z,96391.34
2023-03-26T12:01:40.910Z,96392.25
2023-03-26T12:04:15.363Z,96383.41
2023-03-26T12:06:59.698Z,96378.06
2023-03-26T12:09:27.278Z,96364.91
2023-03-26T12:12:02.328Z,96366.16
2023-03-26T12:14:34.527Z,96369.66
2023-03-26T12:17:14.329Z,96371.06
2023-03-26T12:19:45.118Z,96372.03
2023-03-26T12:22:40.266Z,96377.06
2023-03-26T12:25:24.612Z,96364.03
2023-03-26T12:28:15.578Z,96361.41
2023-03-26T12:31:03.875Z,96352.72
2023-03-26T12:33:34.230Z,96345.38
2023-03-26T12:36:29.138Z,96339.28
2023-03-26T12:40:05.943Z,96319.66
2023-03-26T12:43:40.325Z,96321.13
2023-03-26T12:44:59.310Z,96314.72
2023-03-26T12:47:58.101Z,96315.34
2023-03-26T12:50:34.718Z,96304.09
2023-03-26T12:53:29.753Z,96297.94
2023-03-26T12:56:21.848Z,96302.53
2023-03-26T12:59:25.562Z,96286.84
2023-03-26T13:02:15.907Z,96302.56
2023-03-26T13:05:06.210Z,96285.72
2023-03-26T13:08:18.337Z,96286.13
2023-03-26T13:11:12.124Z,96293.44
2023-03-26T13:14:21.541Z,96312.00
2023-03-26T13:17:12.833Z,96324.44
2023-03-26T13:20:12.215Z,96310.06
2023-03-26T13:23:12.298Z,96305.28
2023-03-26T13:26:19.478Z,96297.63
2023-03-26T13:28:56.194Z,96280.91
2023-03-26T13:31:56.347Z,96280.41
2023-03-26T13:34:59.400Z,96272.97
2023-03-26T13:37:49.127Z,96274.41
2023-03-26T13:40:43.166Z,96265.31
2023-03-26T13:43:46.253Z,96266.88
2023-03-26T13:46:45.127Z,96275.53
2023-03-26T13:49:46.739Z,96272.88
2023-03-26T13:52:29.231Z,96263.72
2023-03-26T13:55:24.709Z,96254.88
2023-03-26T13:58:19.789Z,96255.25
2023-03-26T14:01:04.652Z,96251.19
2023-03-26T14:03:53.593Z,96251.56
2023-03-26T14:06:42.225Z,96249.78
2023-03-26T14:09:24.944Z,96243.66
2023-03-26T14:12:34.127Z,96250.06
2023-03-26T14:15:15.548Z,96251.56
2023-03-26T14:17:58.692Z,96251.19
2023-03-26T14:21:21.117Z,96251.78
2023-03-26T14:24:13.142Z,96251.63
2023-03-26T14:27:34.059Z,96252.22
2023-03-26T14:30:28.151Z,96256.25
2023-03-26T14:33:38.456Z,96255.66
2023-03-26T14:36:17.879Z,96259.00
2023-03-26T14:39:10.691Z,96279.31
2023-03-26T14:41:53.559Z,96292.41
2023-03-26T14:44:48.437Z,96300.63
2023-03-26T14:47:23.708Z,96302.53
2023-03-26T14:50:31.368Z,96327.41
2023-03-26T14:53:04.300Z,96350.59
2023-03-26T14:55:56.540Z,96365.91
2023-03-26T14:59:04.543Z,96352.97
2023-03-26T15:02:07.083Z,96349.75
2023-03-26T15:05:08.148Z,96345.50
2023-03-26T15:08:33.869Z,96350.94
2023-03-26T15:11:53.419Z,96339.44
2023-03-26T15:15:29.116Z,96341.09
2023-03-26T15:18:18.614Z,96357.47
2023-03-26T15:21:26.870Z,96364.38
2023-03-26T15:24:30.741Z,96362.84
2023-03-26T15:27:22.730Z,96358.56
2023-03-26T15:30:14.266Z,96361.72
2023-03-26T15:33:00.202Z,96348.59
2023-03-26T15:36:03.236Z,96345.47
2023-03-26T15:39:07.294Z,96324.38
2023-03-26T15:41:58.107Z,96325.66
2023-03-26T15:45:09.066Z,96316.28
2023-03-26T15:47:47.323Z,96305.22
2023-03-26T15:50:39.674Z,96309.34
2023-03-26T15:53:29.438Z,96306.47
2023-03-26T15:56:17.616Z,96310.56
2023-03-26T15:59:09.250Z,96309.78
2023-03-26T16:02:16.094Z,96303.03
2023-03-26T16:04:51.958Z,96307.34
2023-03-26T16:07:58.752Z,96319.00
2023-03-26T16:10:57.429Z,96311.88
2023-03-26T16:14:07.890Z,96313.50
2023-03-26T16:16:57.379Z,96307.09
2023-03-26T16:20:19.622Z,96300.28
2023-03-26T16:22:53.216Z,96309.34
2023-03-26T16:25:34.740Z,96318.75
2023-03-26T16:28:33.612Z,96334.16
2023-03-26T16:31:22.942Z,96337.44
2023-03-26T16:34:20.120Z,96342.16
2023-03-26T16:36:51.322Z,96346.06
2023-03-26T16:39:41.576Z,96354.84
2023-03-26T16:42:35.442Z,96366.09
2023-03-26T16:45:21.581Z,96363.84
2023-03-26T16:48:26.490Z,96366.09
2023-03-26T16:51:03.488Z,96375.94
2023-03-26T16:53:58.592Z,96384.13
2023-03-26T16:56:50.054Z,96387.59
2023-03-26T17:00:05.180Z,96386.78
2023-03-26T17:03:15.999Z,96387.41
2023-03-26T17:06:18.813Z,96377.16
2023-03-26T17:09:23.367Z,96381.69
2023-03-26T17:12:20.869Z,96387.59
2023-03-26T17:15:17.653Z,96389.47
2023-03-26T17:18:02.424Z,96385.97
2023-03-26T17:20:59.544Z,96391.31
2023-03-26T17:23:47.625Z,96386.41
2023-03-26T17:26:56.488Z,96382.50
2023-03-26T17:29:59.358Z,96387.63
2023-03-26T17:32:55.851Z,96388.69
2023-03-26T17:35:46.135Z,96380.25
2023-03-26T17:38:26.097Z,96379.63
2023-03-26T17:40:59.246Z,96383.56
2023-03-26T17:43:46.035Z,96382.50
2023-03-26T17:46:31.475Z,96373.09
2023-03-26T17:49:11.291Z,96372.66
2023-03-26T17:51:47.631Z,96378.34
2023-03-26T17:54:45.729Z,96375.41
2023-03-26T17:57:43.261Z,96375.44
2023-03-26T18:00:22.901Z,96373.00
2023-03-26T18:02:57.367Z,96369.31
2023-03-26T18:05:30.475Z,96362.91
2023-03-26T18:08:42.888Z,96357.94
2023-03-26T18:11:42.613Z,96366.13
2023-03-26T18:14:36.052Z,96363.91
2023-03-26T18:17:03.892Z,96367.41
2023-03-26T18:19:53.533Z,96375.19
2023-03-26T18:22:26.511Z,96392.78
2023-03-26T18:25:02.059Z,96390.72
2023-03-26T18:27:38.433Z,96388.75
2023-03-26T18:30:20.790Z,96394.53
2023-03-26T18:33:00.403Z,96396.63
2023-03-26T18:35:49.520Z,96389.47
2023-03-26T18:38:36.000Z,96378.81
2023-03-26T18:41:15.219Z,96380.66
2023-03-26T18:43:44.626Z,96383.50
2023-03-26T18:46:14.415Z,96384.72
2023-03-26T18:48:42.635Z,96391.03
2023-03-26T18:51:10.685Z,96371.25
2023-03-26T18:53:47.490Z,96377.66
2023-03-26T18:56:41.679Z,96379.06
2023-03-26T18:59:31.773Z,96371.84
2023-03-26T19:02:04.168Z,96372.47
2023-03-26T19:04:37.163Z,96363.91
2023-03-26T19:07:10.351Z,96372.09
2023-03-26T19:09:38.740Z,96376.59
2023-03-26T19:12:27.628Z,96367.31
2023-03-26T19:15:16.768Z,96381.59
2023-03-26T19:17:48.608Z,96379.75
2023-03-26T19:20:27.222Z,96378.31
2023-03-26T19:22:56.934Z,96366.00
2023-03-26T19:25:36.018Z,96363.66
2023-03-26T19:28:05.237Z,96368.19
2023-03-26T19:30:39.714Z,96357.72
2023-03-26T19:33:20.377Z,96373.00
2023-03-26T19:36:17.791Z,96368.56
2023-03-26T19:38:52.336Z,96367.81
2023-03-26T19:41:26.478Z,96368.44
2023-03-26T19:43:57.860Z,96365.16
2023-03-26T19:46:27.813Z,96364.50
2023-03-26T19:48:57.601Z,96366.72
2023-03-26T19:51:32.200Z,96358.06
2023-03-26T19:54:04.468Z,96360.63
2023-03-26T19:56:33.633Z,96362.47
2023-03-26T19:59:02.195Z,96358.63
2023-03-26T20:01:31.732Z,96351.38
2023-03-26T20:04:06.576Z,96358.03
2023-03-26T20:06:43.056Z,96362.78
2023-03-26T20:09:16.274Z,96363.03
2023-03-26T20:11:43.973Z,96364.03
2023-03-26T20:14:15.726Z,96355.69
2023-03-26T20:16:45.206Z,96339.94
2023-03-26T20:19:15.057Z,96349.13
2023-03-26T20:21:44.293Z,96351.50
2023-03-26T20:24:18.008Z,96347.91
2023-03-26T20:26:46.520Z,96349.94
2023-03-26T20:29:15.231Z,96348.53
2023-03-26T20:31:43.565Z,96350.19
2023-03-26T20:34:21.924Z,96347.53
2023-03-26T20:36:55.244Z,96339.16
2023-03-26T20:39:26.208Z,96349.88
2023-03-26T20:41:55.290Z,96341.94
2023-03-26T20:44:22.838Z,96336.06
2023-03-26T20:46:50.867Z,96345.41
2023-03-26T20:49:18.669Z,96345.75
2023-03-26T20:51:46.813Z,96349.72
2023-03-26T20:54:21.728Z,96335.66
2023-03-26T20:56:52.319Z,96343.00
2023-03-26T20:59:26.388Z,96342.78
2023-03-26T21:01:56.610Z,96342.16
2023-03-26T21:04:24.914Z,96348.09
2023-03-26T21:06:57.554Z,96336.28
2023-03-26T21:09:35.346Z,96353.25
2023-03-26T21:12:29.973Z,96351.41
2023-03-26T21:14:57.899Z,96352.88
2023-03-26T21:17:26.100Z,96355.53
2023-03-26T21:19:54.613Z,96349.19
2023-03-26T21:23:00.968Z,96354.28
2023-03-26T21:25:41.364Z,96352.25
2023-03-26T21:28:41.962Z,96351.78
2023-03-26T21:31:18.504Z,96349.19
2023-03-26T21:33:48.080Z,96362.28
2023-03-26T21:36:19.606Z,96366.41
2023-03-26T21:38:47.515Z,96360.25
2023-03-26T21:42:05.628Z,96363.50
2023-03-26T21:44:34.334Z,96364.19
2023-03-26T21:47:02.332Z,96363.56
2023-03-26T21:49:30.511Z,96366.41
2023-03-26T21:51:58.274Z,96373.38
2023-03-26T21:54:29.953Z,96377.44
2023-03-26T21:57:40.477Z,96377.19
2023-03-26T22:00:11.451Z,96382.69
2023-03-26T22:03:24.241Z,96382.34
2023-03-26T22:06:08.759Z,96379.31
2023-03-26T22:08:38.935Z,96380.88
2023-03-26T22:11:12.114Z,96380.13
2023-03-26T22:13:39.827Z,96371.69
2023-03-26T22:16:10.556Z,96382.22
2023-03-26T22:18:38.266Z,96385.91
2023-03-26T22:21:06.003Z,96388.91
2023-03-26T22:23:38.079Z,96390.09
2023-03-26T22:26:06.340Z,96390.94
2023-03-26T22:28:34.299Z,96389.50
2023-03-26T22:31:09.222Z,96388.16
2023-03-26T22:33:39.936Z,96393.44
2023-03-26T22:36:22.034Z,96391.13
2023-03-26T22:38:55.153Z,96400.91
2023-03-26T22:41:23.276Z,96406.56
2023-03-26T22:43:53.080Z,96416.88
2023-03-26T22:46:22.476Z,96413.56
2023-03-26T22:48:51.105Z,96419.38
2023-03-26T22:51:19.112Z,96427.16
2023-03-26T22:53:46.724Z,96424.88
2023-03-26T22:56:15.309Z,96426.97
2023-03-26T22:58:43.101Z,96432.22
2023-03-26T23:01:18.440Z,96439.31
2023-03-26T23:03:46.629Z,96439.25
2023-03-26T23:06:15.267Z,96451.00
2023-03-26T23:08:43.060Z,96452.19
2023-03-26T23:11:16.882Z,96445.84
2023-03-26T23:13:46.043Z,96456.13
2023-03-26T23:16:15.774Z,96464.81
2023-03-26T23:18:44.533Z,96468.34
2023-03-26T23:21:19.501Z,96472.25
2023-03-26T23:23:49.167Z,96479.34
2023-03-26T23:26:17.029Z,96486.44
2023-03-26T23:28:44.560Z,96482.00
2023-03-26T23:31:12.944Z,96491.84
2023-03-26T23:33:47.996Z,96495.28
2023-03-26T23:36:18.988Z,96499.47
2023-03-26T23:38:51.443Z,96510.59
2023-03-26T23:41:25.240Z,96508.56
2023-03-26T23:43:56.091Z,96509.81
2023-03-26T23:46:34.520Z,96522.44
2023-03-26T23:49:03.397Z,96526.03
2023-03-26T23:51:32.215Z,96535.38
2023-03-26T23:54:00.577Z,96529.16
2023-03-26T23:56:29.818Z,96543.25
2023-03-26T23:58:59.050Z,96545.91
